Time;durP1;ratioP1;P1;durP2;ratioP2;P2;SDS_P1;SDS_P2;PMS_P1;PMS_P2;Temp;Humidity;BMP_temperature;BMP_pressure;BME280_temperature;BME280_humidity;BME280_pressure;Samples;Min_cycle;Max_cycle;Signal;HPM_P1;HPM_P2
2022/02/23 00:00:30;;;;;;;82.45;16.13;;;11.40;84.60;;;;;;5019780;28;20069;-61
2022/02/23 00:02:56;;;;;;;73.53;15.50;;;11.40;84.70;;;;;;5021313;28;20065;-60
2022/02/23 00:05:21;;;;;;;81.15;16.65;;;11.40;84.60;;;;;;5021208;28;20115;-60
2022/02/23 00:07:47;;;;;;;84.35;16.50;;;11.30;84.50;;;;;;5019490;28;20041;-59
2022/02/23 00:10:12;;;;;;;80.10;14.95;;;11.30;84.50;;;;;;5020769;28;20060;-61
2022/02/23 00:12:38;;;;;;;83.07;15.43;;;11.40;84.60;;;;;;5022706;28;21187;-60
2022/02/23 00:15:04;;;;;;;77.35;12.70;;;11.30;84.50;;;;;;5021620;28;20093;-61
2022/02/23 00:17:29;;;;;;;78.22;13.30;;;11.30;84.50;;;;;;5021084;28;20041;-61
2022/02/23 00:19:55;;;;;;;81.22;14.00;;;11.30;84.50;;;;;;5020340;28;20358;-60
2022/02/23 00:22:21;;;;;;;67.50;12.10;;;11.30;84.60;;;;;;5019505;28;20449;-64
2022/02/23 00:24:47;;;;;;;63.17;12.65;;;11.30;84.50;;;;;;5022388;28;20374;-60
2022/02/23 00:27:12;;;;;;;52.83;11.70;;;11.30;84.50;;;;;;5022028;28;20026;-61
2022/02/23 00:29:38;;;;;;;65.22;11.98;;;11.30;84.50;;;;;;5021701;28;20033;-64
2022/02/23 00:32:04;;;;;;;74.75;12.85;;;11.30;84.40;;;;;;5021754;28;20036;-62
2022/02/23 00:34:29;;;;;;;72.32;12.10;;;11.30;84.50;;;;;;5007607;28;20533;-62
2022/02/23 00:36:55;;;;;;;64.95;12.18;;;11.20;84.50;;;;;;5020406;28;20420;-62
2022/02/23 00:39:21;;;;;;;80.30;12.98;;;11.30;84.70;;;;;;5024441;28;20025;-63
2022/02/23 00:41:47;;;;;;;66.00;11.95;;;11.20;84.60;;;;;;5026140;28;20026;-64
2022/02/23 00:44:13;;;;;;;54.63;11.05;;;11.20;84.70;;;;;;5025205;28;20026;-63
2022/02/23 00:46:39;;;;;;;52.40;10.82;;;11.20;85.30;;;;;;5023302;28;20055;-63
2022/02/23 00:49:05;;;;;;;59.53;11.38;;;11.20;84.60;;;;;;5023041;28;20034;-61
2022/02/23 00:51:30;;;;;;;59.00;11.30;;;11.20;84.60;;;;;;5024964;28;20049;-60
2022/02/23 00:53:56;;;;;;;58.05;10.77;;;11.20;84.70;;;;;;5023257;28;20123;-63
2022/02/23 00:56:22;;;;;;;66.50;12.27;;;11.20;84.30;;;;;;5026083;28;20049;-61
2022/02/23 00:58:48;;;;;;;57.85;11.00;;;11.20;85.10;;;;;;5026523;28;20129;-62
2022/02/23 01:01:13;;;;;;;56.42;9.82;;;11.10;85.10;;;;;;5007074;28;20025;-63
2022/02/23 01:03:39;;;;;;;50.97;9.60;;;11.20;85.10;;;;;;5022556;28;20214;-62
2022/02/23 01:06:04;;;;;;;53.42;10.40;;;11.10;85.20;;;;;;5024581;28;20111;-61
2022/02/23 01:08:30;;;;;;;35.88;8.50;;;11.10;85.40;;;;;;5025417;28;20029;-62
2022/02/23 01:10:55;;;;;;;34.83;7.88;;;11.10;85.00;;;;;;5025540;28;20034;-60
2022/02/23 01:13:21;;;;;;;45.55;6.43;;;11.10;84.90;;;;;;5026738;28;20041;-62
2022/02/23 01:15:46;;;;;;;38.47;7.68;;;11.10;84.80;;;;;;5022610;28;20409;-60
2022/02/23 01:18:12;;;;;;;33.72;8.48;;;11.10;84.80;;;;;;5022499;28;20056;-62
2022/02/23 01:20:37;;;;;;;44.08;8.35;;;11.10;85.00;;;;;;5023373;28;20033;-62
2022/02/23 01:23:03;;;;;;;36.50;7.97;;;11.00;84.90;;;;;;5025643;28;20040;-63
2022/02/23 01:25:31;;;;;;;39.97;8.00;;;11.00;85.00;;;;;;5024357;28;20022;-61
2022/02/23 01:27:59;;;;;;;41.72;8.20;;;11.00;84.90;;;;;;5022421;28;20492;-60
2022/02/23 01:30:24;;;;;;;38.20;8.07;;;11.00;85.00;;;;;;5022331;28;20163;-63
2022/02/23 01:32:50;;;;;;;34.38;8.13;;;11.00;85.00;;;;;;5024013;28;20117;-63
2022/02/23 01:35:16;;;;;;;34.45;6.38;;;11.00;85.00;;;;;;5023395;28;20199;-59
2022/02/23 01:37:41;;;;;;;50.35;7.65;;;11.00;85.00;;;;;;5008109;28;20091;-60
2022/02/23 01:40:07;;;;;;;28.92;6.97;;;11.00;85.00;;;;;;5024036;28;20045;-62
2022/02/23 01:42:33;;;;;;;34.00;7.25;;;11.00;85.00;;;;;;5023596;28;20159;-60
2022/02/23 01:44:58;;;;;;;27.17;6.53;;;11.00;85.00;;;;;;5024352;28;20383;-60
2022/02/23 01:47:24;;;;;;;31.55;7.05;;;10.90;85.00;;;;;;5025862;28;20499;-61
2022/02/23 01:49:49;;;;;;;31.73;6.63;;;10.90;85.00;;;;;;5024236;28;20035;-61
2022/02/23 01:52:15;;;;;;;32.78;7.10;;;10.90;85.70;;;;;;5021216;28;20171;-61
2022/02/23 01:54:41;;;;;;;33.88;7.18;;;10.90;85.10;;;;;;5023221;28;20158;-63
2022/02/23 01:57:06;;;;;;;24.63;6.47;;;10.90;85.00;;;;;;5021686;28;20389;-62
2022/02/23 01:59:32;;;;;;;29.13;6.05;;;10.90;85.10;;;;;;5023856;28;20029;-60
2022/02/23 02:01:58;;;;;;;27.48;5.95;;;10.90;85.20;;;;;;5007540;28;20029;-62
2022/02/23 02:04:23;;;;;;;27.77;6.80;;;10.90;85.20;;;;;;5021897;28;20331;-62
2022/02/23 02:06:49;;;;;;;19.85;6.13;;;10.90;85.30;;;;;;5022552;28;20041;-60
2022/02/23 02:09:16;;;;;;;35.25;6.75;;;10.90;85.20;;;;;;5022244;28;20057;-62
2022/02/23 02:11:41;;;;;;;25.83;5.85;;;10.90;85.30;;;;;;5027021;28;20100;-63
2022/02/23 02:14:07;;;;;;;28.67;5.95;;;10.90;85.30;;;;;;5027013;28;20026;-60
2022/02/23 02:16:33;;;;;;;20.23;6.15;;;10.80;85.40;;;;;;5027024;28;20029;-60
2022/02/23 02:18:59;;;;;;;18.40;5.53;;;10.80;85.40;;;;;;5008932;28;20137;-61
2022/02/23 02:21:54;;;;;;;20.73;5.35;;;10.80;85.40;;;;;;5023423;28;20594;-60
2022/02/23 02:24:21;;;;;;;29.65;6.05;;;10.80;85.40;;;;;;5020888;28;20033;-62
2022/02/23 02:26:47;;;;;;;27.02;5.95;;;10.80;85.50;;;;;;5024350;28;20196;-60
2022/02/23 02:29:13;;;;;;;25.02;5.65;;;10.80;86.30;;;;;;5024230;28;20151;-60
2022/02/23 02:31:38;;;;;;;19.30;5.47;;;10.80;85.60;;;;;;5023156;28;20095;-59
2022/02/23 02:34:04;;;;;;;22.30;5.50;;;10.80;85.60;;;;;;5021576;28;20519;-62
2022/02/23 02:36:29;;;;;;;24.08;6.10;;;10.80;85.60;;;;;;5024687;28;20031;-62
2022/02/23 02:38:55;;;;;;;21.25;4.88;;;10.80;85.70;;;;;;5022616;28;20068;-60
2022/02/23 02:41:20;;;;;;;22.90;5.57;;;10.70;85.70;;;;;;5024920;28;20041;-62
2022/02/23 02:43:46;;;;;;;19.63;4.90;;;10.70;86.40;;;;;;5021847;28;20068;-59
2022/02/23 02:46:11;;;;;;;15.23;4.65;;;10.70;85.80;;;;;;5020198;28;20964;-59
2022/02/23 02:48:37;;;;;;;19.15;5.18;;;10.70;85.80;;;;;;5022455;28;20030;-62
2022/02/23 02:51:02;;;;;;;13.07;4.05;;;10.70;85.90;;;;;;5023941;28;20029;-64
2022/02/23 02:53:28;;;;;;;22.98;5.45;;;10.70;85.80;;;;;;5022439;28;20476;-61
2022/02/23 02:55:53;;;;;;;20.20;4.78;;;10.70;85.90;;;;;;5023527;28;20084;-64
2022/02/23 02:58:19;;;;;;;13.93;4.60;;;10.70;85.90;;;;;;5021055;28;20041;-62
2022/02/23 03:00:44;;;;;;;13.90;4.95;;;10.70;85.90;;;;;;5020539;28;20038;-64
2022/02/23 03:03:10;;;;;;;14.60;4.00;;;10.70;85.90;;;;;;5022752;28;20037;-63
2022/02/23 03:05:35;;;;;;;22.30;5.32;;;10.70;85.90;;;;;;5024142;28;20041;-60
2022/02/23 03:08:01;;;;;;;23.83;7.40;;;10.70;85.90;;;;;;5019339;28;20037;-60
2022/02/23 03:10:26;;;;;;;13.90;5.47;;;10.70;85.90;;;;;;5023629;28;20025;-62
2022/02/23 03:12:52;;;;;;;16.70;4.90;;;10.70;85.90;;;;;;5020603;28;20531;-62
2022/02/23 03:15:17;;;;;;;14.70;4.65;;;10.60;85.90;;;;;;5021682;28;20473;-61
2022/02/23 03:17:43;;;;;;;20.75;5.30;;;10.60;86.00;;;;;;5022622;28;20056;-61
2022/02/23 03:20:09;;;;;;;14.82;4.25;;;10.60;86.30;;;;;;5023606;28;20048;-62
2022/02/23 03:22:35;;;;;;;17.92;3.90;;;10.60;86.20;;;;;;5022582;28;20128;-61
2022/02/23 03:25:01;;;;;;;20.98;3.97;;;10.50;86.30;;;;;;5004252;28;20045;-62
2022/02/23 03:27:27;;;;;;;18.05;4.20;;;10.60;86.40;;;;;;5018469;28;20269;-60
2022/02/23 03:29:52;;;;;;;16.98;4.85;;;10.60;86.40;;;;;;5022088;28;20045;-61
2022/02/23 03:32:18;;;;;;;9.35;3.47;;;10.60;86.50;;;;;;5022452;28;20037;-62
2022/02/23 03:34:44;;;;;;;16.92;4.70;;;10.60;86.60;;;;;;5021118;28;20052;-63
2022/02/23 03:37:09;;;;;;;12.98;3.80;;;10.60;86.70;;;;;;5022023;28;20087;-62
2022/02/23 03:39:35;;;;;;;18.13;4.47;;;10.50;86.60;;;;;;5018343;28;20175;-60
2022/02/23 03:42:00;;;;;;;15.18;4.00;;;10.50;86.70;;;;;;5004984;28;20087;-63
2022/02/23 03:44:26;;;;;;;15.13;4.05;;;10.50;86.70;;;;;;5021519;28;20053;-62
2022/02/23 03:46:51;;;;;;;12.05;3.85;;;10.50;86.80;;;;;;5018014;28;20042;-63
2022/02/23 03:49:17;;;;;;;15.23;4.18;;;10.50;87.00;;;;;;5021157;28;20044;-63
2022/02/23 03:51:43;;;;;;;16.15;3.88;;;10.50;87.00;;;;;;5020379;28;20513;-62
2022/02/23 03:54:08;;;;;;;11.88;3.85;;;10.60;87.10;;;;;;5019423;28;20482;-62
2022/02/23 03:56:40;;;;;;;16.45;4.05;;;10.50;87.20;;;;;;5022583;28;20276;-60
2022/02/23 03:59:14;;;;;;;9.70;3.60;;;10.60;87.20;;;;;;5022882;28;20220;-60
2022/02/23 04:01:41;;;;;;;11.20;3.50;;;10.60;87.40;;;;;;5021380;28;20523;-62
2022/02/23 04:04:07;;;;;;;13.48;3.55;;;10.60;87.40;;;;;;5018684;28;20115;-61
2022/02/23 04:06:33;;;;;;;11.90;3.92;;;10.60;87.40;;;;;;5022250;28;20033;-60
2022/02/23 04:09:00;;;;;;;8.45;3.45;;;10.60;87.60;;;;;;5022254;28;20026;-63
2022/02/23 04:11:25;;;;;;;14.85;4.30;;;10.60;87.60;;;;;;5022373;28;20029;-63
2022/02/23 04:13:51;;;;;;;9.52;3.45;;;10.60;87.60;;;;;;5022534;28;20029;-61
2022/02/23 04:16:16;;;;;;;8.68;3.90;;;10.50;87.50;;;;;;5019436;28;20073;-63
2022/02/23 04:18:43;;;;;;;15.07;4.25;;;10.50;87.60;;;;;;5020716;28;20095;-62
2022/02/23 04:21:08;;;;;;;10.25;3.58;;;10.50;87.70;;;;;;5018516;28;20042;-63
2022/02/23 04:23:34;;;;;;;12.95;3.65;;;10.50;87.90;;;;;;5022862;28;20025;-60
2022/02/23 04:25:59;;;;;;;7.40;3.08;;;10.50;88.40;;;;;;5021009;28;20029;-64
2022/02/23 04:28:28;;;;;;;13.48;3.97;;;10.50;88.80;;;;;;5021342;28;20432;-61
2022/02/23 04:30:54;;;;;;;10.07;3.33;;;10.50;89.10;;;;;;5019224;28;20153;-63
2022/02/23 04:33:20;;;;;;;13.50;4.00;;;10.50;89.30;;;;;;5020070;28;20539;-59
2022/02/23 04:35:47;;;;;;;8.32;3.28;;;10.50;89.40;;;;;;5020884;28;20033;-62
2022/02/23 04:38:13;;;;;;;9.07;3.63;;;10.50;89.50;;;;;;5020129;28;20051;-62
2022/02/23 04:40:38;;;;;;;7.78;3.28;;;10.50;89.50;;;;;;5021280;28;20037;-61
2022/02/23 04:43:04;;;;;;;10.65;3.55;;;10.50;89.40;;;;;;5021278;28;20029;-60
2022/02/23 04:45:31;;;;;;;10.10;3.67;;;10.60;89.40;;;;;;5021249;28;20026;-63
2022/02/23 04:47:56;;;;;;;10.02;3.47;;;10.60;89.30;;;;;;5021437;28;20481;-60
2022/02/23 04:50:22;;;;;;;9.10;3.22;;;10.60;88.90;;;;;;5021304;28;20030;-62
2022/02/23 04:52:47;;;;;;;12.30;3.80;;;10.60;88.90;;;;;;5019508;28;20044;-61
2022/02/23 04:55:13;;;;;;;10.10;4.00;;;10.60;88.90;;;;;;5019406;28;20072;-60
2022/02/23 04:57:38;;;;;;;9.70;4.38;;;10.50;88.90;;;;;;5020644;28;20146;-60
2022/02/23 05:00:04;;;;;;;10.00;4.30;;;10.60;88.80;;;;;;5021349;28;20604;-62
2022/02/23 05:02:30;;;;;;;13.82;4.07;;;10.50;88.70;;;;;;5020214;28;20055;-62
2022/02/23 05:04:56;;;;;;;13.23;4.15;;;10.60;88.80;;;;;;5021973;28;20022;-59
2022/02/23 05:07:24;;;;;;;10.82;3.90;;;10.60;88.80;;;;;;5019378;28;20338;-61
2022/02/23 05:09:50;;;;;;;14.82;4.50;;;10.60;88.70;;;;;;5019098;28;20030;-63
2022/02/23 05:12:16;;;;;;;15.38;4.68;;;10.50;88.70;;;;;;5019969;28;20077;-61
2022/02/23 05:14:41;;;;;;;10.88;4.38;;;10.50;88.80;;;;;;5020178;28;20021;-62
2022/02/23 05:17:07;;;;;;;13.48;4.10;;;10.50;88.80;;;;;;5002797;28;20030;-60
2022/02/23 05:19:34;;;;;;;10.93;4.05;;;10.50;88.80;;;;;;5021414;28;20041;-62
2022/02/23 05:22:00;;;;;;;7.38;3.58;;;10.60;88.80;;;;;;5022325;28;20037;-59
2022/02/23 05:24:28;;;;;;;11.32;4.03;;;10.50;88.70;;;;;;5022765;28;20033;-60
2022/02/23 05:26:56;;;;;;;12.98;4.07;;;10.50;88.70;;;;;;5021205;28;20409;-60
2022/02/23 05:29:23;;;;;;;63.90;8.30;;;10.50;88.70;;;;;;5023563;28;20172;-61
2022/02/23 05:31:48;;;;;;;49.80;7.25;;;10.60;88.80;;;;;;5026082;28;20095;-63
2022/02/23 05:34:14;;;;;;;33.25;6.47;;;10.50;88.70;;;;;;5023492;28;20030;-62
2022/02/23 05:36:39;;;;;;;18.17;4.40;;;10.50;88.70;;;;;;5019741;28;20124;-63
2022/02/23 05:39:05;;;;;;;25.25;4.88;;;10.50;88.70;;;;;;5024603;28;20033;-63
2022/02/23 05:41:30;;;;;;;23.35;5.30;;;10.50;88.60;;;;;;5024529;28;20112;-61
2022/02/23 05:43:56;;;;;;;21.17;4.63;;;10.50;88.60;;;;;;5023974;28;20112;-63
2022/02/23 05:46:21;;;;;;;16.45;4.45;;;10.50;88.60;;;;;;5019835;28;20046;-61
2022/02/23 05:48:47;;;;;;;16.10;4.60;;;10.50;88.60;;;;;;5023517;28;20107;-60
2022/02/23 05:51:31;;;;;;;17.92;4.80;;;10.50;88.60;;;;;;5022284;28;20061;-63
2022/02/23 05:53:56;;;;;;;12.25;4.28;;;10.50;88.70;;;;;;5025783;28;20030;-61
2022/02/23 05:56:22;;;;;;;17.15;4.63;;;10.50;88.60;;;;;;5022520;28;20366;-59
2022/02/23 05:58:48;;;;;;;17.90;4.20;;;10.50;89.30;;;;;;5022889;28;20041;-61
2022/02/23 06:01:13;;;;;;;11.82;3.70;;;10.50;88.60;;;;;;5020357;28;20060;-61
2022/02/23 06:03:39;;;;;;;18.27;4.32;;;10.50;88.60;;;;;;5023245;28;20037;-59
2022/02/23 06:06:04;;;;;;;14.55;4.25;;;10.50;88.70;;;;;;5022976;28;20033;-63
2022/02/23 06:08:30;;;;;;;11.35;4.20;;;10.50;88.80;;;;;;5025529;28;20028;-60
2022/02/23 06:10:55;;;;;;;23.35;4.35;;;10.50;88.70;;;;;;5022552;28;20030;-59
2022/02/23 06:13:21;;;;;;;24.45;5.22;;;10.50;88.80;;;;;;5023384;28;20524;-60
2022/02/23 06:15:47;;;;;;;20.90;5.25;;;10.50;88.70;;;;;;5020169;28;20198;-62
2022/02/23 06:18:13;;;;;;;27.77;4.88;;;10.50;88.80;;;;;;5025103;28;20531;-61
2022/02/23 06:20:38;;;;;;;31.02;4.70;;;10.50;88.90;;;;;;5024012;28;20169;-64
2022/02/23 06:23:04;;;;;;;26.70;5.63;;;10.50;89.00;;;;;;5023172;28;20021;-61
2022/02/23 06:25:29;;;;;;;25.88;5.28;;;10.50;89.30;;;;;;5021899;28;20037;-59
2022/02/23 06:27:55;;;;;;;18.02;4.53;;;10.50;89.50;;;;;;5024124;28;20049;-62
2022/02/23 06:30:21;;;;;;;19.40;4.28;;;10.50;89.20;;;;;;5021163;28;20072;-62
2022/02/23 06:32:47;;;;;;;30.92;5.05;;;10.50;89.70;;;;;;5024431;28;20119;-59
2022/02/23 06:35:12;;;;;;;16.42;4.45;;;10.50;89.40;;;;;;5022014;28;20262;-63
2022/02/23 06:37:38;;;;;;;18.15;4.90;;;10.50;89.60;;;;;;5023324;28;20029;-62
2022/02/23 06:40:04;;;;;;;16.63;4.22;;;10.50;89.50;;;;;;5018589;28;20026;-59
2022/02/23 06:42:30;;;;;;;17.77;3.90;;;10.40;89.70;;;;;;5021107;28;20540;-63
2022/02/23 06:44:56;;;;;;;53.38;6.72;;;10.40;89.60;;;;;;5023308;28;20046;-62
2022/02/23 06:47:21;;;;;;;38.67;6.25;;;10.50;89.80;;;;;;5024461;28;20480;-61
2022/02/23 06:49:47;;;;;;;32.50;5.78;;;10.40;90.00;;;;;;5021413;28;20029;-63
2022/02/23 06:52:14;;;;;;;61.50;8.25;;;10.50;90.00;;;;;;5009992;28;20067;-63
2022/02/23 06:54:39;;;;;;;67.88;9.63;;;10.40;90.00;;;;;;5019781;28;20123;-59
2022/02/23 06:57:08;;;;;;;92.82;10.93;;;10.50;90.00;;;;;;5015634;28;20045;-61
2022/02/23 06:59:34;;;;;;;56.10;7.63;;;10.50;90.10;;;;;;5020372;28;20805;-61
2022/02/23 07:01:59;;;;;;;56.47;8.25;;;10.50;90.10;;;;;;5019790;28;20045;-60
2022/02/23 07:04:25;;;;;;;55.58;7.80;;;10.50;90.20;;;;;;5021952;28;20113;-59
2022/02/23 07:06:50;;;;;;;37.90;6.53;;;10.50;90.10;;;;;;5019656;28;20034;-59
2022/02/23 07:09:16;;;;;;;43.70;6.65;;;10.40;90.00;;;;;;5019140;28;20101;-60
2022/02/23 07:11:42;;;;;;;41.70;6.93;;;10.50;90.00;;;;;;5019391;28;20113;-59
2022/02/23 07:14:07;;;;;;;40.95;5.55;;;10.50;90.00;;;;;;5023601;28;20339;-59
2022/02/23 07:16:33;;;;;;;41.63;6.13;;;10.40;90.00;;;;;;5022715;28;20132;-58
2022/02/23 07:18:59;;;;;;;30.20;4.90;;;10.40;90.00;;;;;;5016211;28;20516;-60
2022/02/23 07:21:24;;;;;;;23.45;5.00;;;10.50;90.00;;;;;;5018686;28;20052;-62
2022/02/23 07:23:50;;;;;;;31.10;4.63;;;10.50;90.10;;;;;;5021406;28;20053;-62
2022/02/23 07:26:16;;;;;;;34.63;5.35;;;10.50;90.10;;;;;;5021071;28;20029;-62
2022/02/23 07:28:42;;;;;;;20.83;4.53;;;10.50;90.20;;;;;;5023401;28;20353;-58
2022/02/23 07:31:13;;;;;;;15.13;3.78;;;10.50;90.20;;;;;;5018735;28;20342;-59
2022/02/23 07:33:39;;;;;;;55.80;6.70;;;10.50;90.20;;;;;;5017761;28;20033;-58
2022/02/23 07:36:04;;;;;;;53.75;5.93;;;10.50;90.40;;;;;;5019686;28;20096;-62
2022/02/23 07:38:30;;;;;;;40.17;5.57;;;10.50;90.40;;;;;;5018739;28;20120;-61
2022/02/23 07:40:56;;;;;;;24.17;4.00;;;10.50;90.50;;;;;;5020361;28;20039;-58
2022/02/23 07:43:21;;;;;;;21.52;4.18;;;10.50;90.60;;;;;;5015961;28;20489;-62
2022/02/23 07:45:47;;;;;;;42.15;4.88;;;10.40;90.70;;;;;;5012841;28;20040;-61
2022/02/23 07:48:13;;;;;;;43.60;5.03;;;10.50;90.70;;;;;;5002577;28;20546;-62
2022/02/23 07:50:38;;;;;;;37.45;4.90;;;10.50;90.80;;;;;;5001934;28;20576;-60
2022/02/23 07:53:04;;;;;;;21.38;3.60;;;10.40;90.90;;;;;;5019512;28;20144;-60
2022/02/23 07:55:30;;;;;;;34.75;4.68;;;10.50;91.00;;;;;;5021591;28;20375;-60
2022/02/23 07:57:56;;;;;;;95.55;14.57;;;10.50;91.00;;;;;;5017625;28;20044;-60
2022/02/23 08:00:22;;;;;;;65.78;10.38;;;10.40;91.00;;;;;;5017579;28;20143;-61
2022/02/23 08:02:48;;;;;;;42.20;6.18;;;10.50;91.10;;;;;;5016641;28;20021;-61
2022/02/23 08:05:13;;;;;;;36.83;6.15;;;10.50;91.10;;;;;;5020245;28;20025;-60
2022/02/23 08:07:39;;;;;;;46.97;8.23;;;10.40;91.10;;;;;;5004333;28;20081;-63
2022/02/23 08:10:05;;;;;;;36.10;5.90;;;10.50;91.20;;;;;;5018220;28;20029;-61
2022/02/23 08:12:30;;;;;;;52.00;5.05;;;10.50;91.30;;;;;;5017510;28;20067;-61
2022/02/23 08:14:57;;;;;;;30.73;4.70;;;10.50;91.30;;;;;;5009411;28;20037;-59
2022/02/23 08:20:07;;;;;;;23.20;4.70;;;10.50;91.30;;;;;;5020535;28;20560;-60
2022/02/23 08:22:33;;;;;;;23.77;4.10;;;10.50;91.30;;;;;;5016763;28;20034;-60
2022/02/23 08:24:59;;;;;;;22.55;4.28;;;10.50;91.20;;;;;;5020014;28;20025;-61
2022/02/23 08:27:25;;;;;;;13.70;3.38;;;10.60;91.20;;;;;;5018929;28;20780;-60
2022/02/23 08:29:52;;;;;;;12.00;3.15;;;10.50;91.30;;;;;;5018546;28;20120;-61
2022/02/23 08:32:18;;;;;;;16.48;3.30;;;10.50;91.10;;;;;;5020973;28;20053;-62
2022/02/23 08:34:45;;;;;;;21.27;3.50;;;10.60;91.20;;;;;;5023550;28;20064;-60
2022/02/23 08:37:11;;;;;;;37.58;5.60;;;10.60;91.10;;;;;;5011118;28;20117;-60
2022/02/23 08:39:37;;;;;;;41.10;5.75;;;10.60;91.20;;;;;;5019354;28;20071;-59
2022/02/23 08:42:04;;;;;;;20.15;3.53;;;10.60;91.20;;;;;;5021028;28;20485;-60
2022/02/23 08:44:30;;;;;;;34.72;4.20;;;10.60;91.60;;;;;;5022257;28;20784;-62
2022/02/23 08:46:55;;;;;;;21.67;4.28;;;10.60;91.50;;;;;;5017578;28;20047;-61
2022/02/23 08:49:21;;;;;;;13.85;3.22;;;10.70;91.50;;;;;;5021683;28;20021;-61
2022/02/23 08:51:47;;;;;;;14.25;3.45;;;10.60;91.50;;;;;;5015598;28;20065;-59
2022/02/23 08:54:14;;;;;;;26.52;4.05;;;10.60;91.40;;;;;;5019770;28;21371;-61
2022/02/23 08:56:39;;;;;;;57.38;7.20;;;10.60;91.40;;;;;;5025773;28;20033;-60
2022/02/23 08:59:05;;;;;;;31.38;4.65;;;10.60;91.50;;;;;;5021172;28;20448;-59
2022/02/23 09:01:30;;;;;;;25.35;3.38;;;10.60;91.30;;;;;;5021801;28;20029;-60
2022/02/23 09:03:57;;;;;;;22.55;3.42;;;10.60;91.50;;;;;;5025586;28;20022;-62
2022/02/23 09:06:23;;;;;;;17.23;3.75;;;10.60;91.40;;;;;;5023331;28;20493;-58
2022/02/23 09:08:49;;;;;;;22.67;3.90;;;10.60;91.30;;;;;;5018674;28;20042;-58
2022/02/23 09:11:14;;;;;;;15.13;2.80;;;10.70;91.30;;;;;;5023483;28;20580;-59
2022/02/23 09:13:40;;;;;;;13.75;2.92;;;10.70;91.40;;;;;;5025998;28;20037;-60
2022/02/23 09:16:06;;;;;;;25.00;2.95;;;10.70;91.30;;;;;;5021737;28;20046;-60
2022/02/23 09:18:32;;;;;;;23.27;2.80;;;10.80;91.40;;;;;;5024318;28;20048;-60
2022/02/23 09:20:57;;;;;;;25.55;3.30;;;10.70;91.30;;;;;;5006181;28;20386;-62
2022/02/23 09:23:23;;;;;;;24.63;3.30;;;10.70;91.40;;;;;;5023520;28;20048;-61
2022/02/23 09:25:48;;;;;;;39.67;4.68;;;10.70;91.30;;;;;;5025701;28;20030;-59
2022/02/23 09:28:14;;;;;;;24.75;3.83;;;10.70;91.40;;;;;;5022872;28;20039;-62
2022/02/23 09:30:40;;;;;;;19.88;3.53;;;10.70;91.40;;;;;;5022558;28;20990;-60
2022/02/23 09:33:05;;;;;;;20.70;3.80;;;10.80;91.50;;;;;;5022954;28;20491;-59
2022/02/23 09:35:31;;;;;;;29.40;4.38;;;10.80;91.50;;;;;;5023205;28;20083;-60
2022/02/23 09:37:57;;;;;;;23.80;4.20;;;10.80;91.50;;;;;;5016257;28;20475;-59
2022/02/23 09:40:23;;;;;;;39.67;4.63;;;10.80;91.50;;;;;;5021543;28;20071;-58
2022/02/23 09:42:50;;;;;;;35.90;5.95;;;10.80;91.70;;;;;;5024518;28;20029;-59
2022/02/23 09:45:15;;;;;;;104.60;10.82;;;10.80;91.50;;;;;;5023773;28;20048;-59
2022/02/23 09:47:41;;;;;;;35.72;5.88;;;10.90;91.60;;;;;;5024834;28;20029;-59
2022/02/23 09:50:10;;;;;;;33.40;3.95;;;10.90;91.60;;;;;;5019447;28;20668;-60
2022/02/23 09:52:35;;;;;;;42.85;5.35;;;10.90;91.50;;;;;;5018972;28;20759;-59
2022/02/23 09:55:02;;;;;;;42.05;5.88;;;10.90;91.60;;;;;;5025320;28;20037;-62
2022/02/23 09:57:30;;;;;;;34.40;5.85;;;10.90;91.70;;;;;;5007630;28;20064;-58
2022/02/23 09:59:56;;;;;;;41.47;6.00;;;10.90;91.70;;;;;;5021606;28;20070;-62
2022/02/23 10:02:22;;;;;;;38.47;5.20;;;10.90;91.70;;;;;;5024596;28;20037;-60
2022/02/23 10:04:49;;;;;;;36.40;5.63;;;10.90;91.70;;;;;;5014162;28;20424;-59
2022/02/23 10:07:14;;;;;;;41.65;5.93;;;11.00;91.80;;;;;;5023591;28;20121;-61
2022/02/23 10:09:41;;;;;;;58.47;6.47;;;11.00;91.80;;;;;;5021595;28;20113;-60
2022/02/23 10:12:07;;;;;;;45.15;5.95;;;11.00;91.80;;;;;;5025106;28;20025;-62
2022/02/23 10:14:33;;;;;;;58.08;6.55;;;11.00;91.90;;;;;;5017734;28;20540;-60
2022/02/23 10:16:59;;;;;;;46.67;7.03;;;11.10;91.90;;;;;;5020464;28;20424;-60
2022/02/23 10:19:24;;;;;;;55.08;6.22;;;11.10;91.90;;;;;;4999614;28;20033;-62
2022/02/23 10:21:57;;;;;;;54.95;5.30;;;11.10;91.90;;;;;;5014529;28;20033;-59
2022/02/23 10:24:39;;;;;;;55.97;6.50;;;11.10;91.90;;;;;;5015323;28;20045;-62
2022/02/23 10:27:12;;;;;;;54.25;6.72;;;11.10;91.90;;;;;;5022409;28;20107;-61
2022/02/23 10:29:55;;;;;;;50.28;7.15;;;11.10;91.90;;;;;;5021826;28;20592;-62
2022/02/23 10:32:25;;;;;;;40.65;5.75;;;11.20;91.90;;;;;;5024197;28;20121;-62
2022/02/23 10:34:53;;;;;;;48.20;5.82;;;11.20;91.80;;;;;;5017385;28;20079;-62
2022/02/23 10:37:23;;;;;;;76.85;9.30;;;11.20;91.70;;;;;;5015008;28;20053;-57
2022/02/23 10:40:00;;;;;;;61.95;7.82;;;11.40;91.70;;;;;;5021132;28;20041;-61
2022/02/23 10:42:29;;;;;;;41.10;6.55;;;11.30;91.60;;;;;;5023294;28;20147;-61
2022/02/23 10:44:55;;;;;;;48.97;6.03;;;11.30;91.60;;;;;;5019654;28;20060;-62
2022/02/23 10:47:23;;;;;;;51.88;6.03;;;11.30;91.50;;;;;;5021845;28;20088;-59
2022/02/23 10:50:02;;;;;;;67.78;6.57;;;11.30;91.60;;;;;;5015363;28;21179;-64
2022/02/23 10:52:29;;;;;;;51.45;6.78;;;11.40;91.50;;;;;;4999414;28;20030;-61
2022/02/23 10:55:30;;;;;;;55.95;7.55;;;11.40;91.50;;;;;;5017113;28;20033;-60
2022/02/23 10:57:57;;;;;;;72.15;8.18;;;11.10;91.50;;;;;;4983611;28;20204;-61
2022/02/23 11:00:24;;;;;;;57.53;7.28;;;11.40;91.50;;;;;;5013631;28;20036;-60
2022/02/23 11:02:50;;;;;;;175.63;18.80;;;11.40;91.40;;;;;;5018921;28;20053;-61
2022/02/23 11:05:16;;;;;;;84.15;10.93;;;11.40;91.50;;;;;;5003656;28;20113;-59
2022/02/23 11:07:44;;;;;;;58.80;7.75;;;11.50;91.40;;;;;;5019777;28;20030;-60
2022/02/23 11:10:14;;;;;;;61.40;8.85;;;11.50;91.50;;;;;;5017300;28;20030;-60
2022/02/23 11:12:50;;;;;;;99.63;12.23;;;11.50;91.50;;;;;;4998189;28;20473;-61
2022/02/23 11:15:21;;;;;;;75.82;8.68;;;11.50;91.40;;;;;;5002825;28;20076;-58
2022/02/23 11:17:49;;;;;;;48.17;7.45;;;11.60;91.40;;;;;;5017810;28;20074;-59
2022/02/23 11:20:27;;;;;;;96.32;10.27;;;11.60;91.30;;;;;;5017727;28;20025;-59
2022/02/23 11:22:56;;;;;;;112.53;12.13;;;11.60;91.30;;;;;;5005587;28;21541;-61
2022/02/23 11:25:26;;;;;;;58.65;6.70;;;11.60;91.20;;;;;;5020037;28;20018;-60
2022/02/23 11:27:56;;;;;;;118.20;11.57;;;11.60;91.20;;;;;;4986410;28;20048;-57
2022/02/23 11:30:22;;;;;;;100.85;12.07;;;11.60;91.20;;;;;;5018941;28;20041;-60
2022/02/23 11:32:47;;;;;;;95.57;11.02;;;11.70;91.30;;;;;;5013878;28;20627;-61
2022/02/23 11:35:13;;;;;;;66.75;8.15;;;11.70;91.30;;;;;;5016320;28;20514;-59
2022/02/23 11:37:40;;;;;;;92.43;9.57;;;11.70;91.20;;;;;;5019341;28;20033;-60
2022/02/23 11:40:07;;;;;;;126.18;13.30;;;11.70;91.10;;;;;;5019982;28;20533;-62
2022/02/23 11:42:34;;;;;;;87.75;10.60;;;11.70;91.20;;;;;;5019472;28;20054;-59
2022/02/23 11:45:26;;;;;;;88.88;9.10;;;12.00;91.20;;;;;;5018873;28;20916;-61
2022/02/23 11:47:51;;;;;;;82.40;9.75;;;11.80;91.10;;;;;;5017429;28;20409;-61
2022/02/23 11:50:22;;;;;;;161.93;15.00;;;11.90;91.10;;;;;;5021562;28;20045;-61
2022/02/23 11:52:48;;;;;;;104.00;14.00;;;11.90;91.20;;;;;;5005524;28;20118;-59
2022/02/23 11:55:18;;;;;;;95.38;11.98;;;11.90;91.10;;;;;;5018968;28;20462;-60
2022/02/23 11:57:53;;;;;;;125.88;13.95;;;12.00;91.10;;;;;;5019779;28;20030;-62
2022/02/23 12:00:24;;;;;;;81.55;11.20;;;12.00;91.10;;;;;;5019066;28;20034;-61
2022/02/23 12:03:09;;;;;;;98.25;13.05;;;12.00;91.00;;;;;;5019375;28;20398;-60
2022/02/23 12:05:38;;;;;;;99.13;11.23;;;11.80;90.90;;;;;;5017723;28;20034;-60
2022/02/23 12:08:05;;;;;;;128.93;12.43;;;12.10;91.00;;;;;;5019231;28;20037;-62
2022/02/23 12:10:30;;;;;;;120.38;12.70;;;12.10;90.80;;;;;;5001414;28;20029;-59
2022/02/23 12:12:56;;;;;;;109.00;12.18;;;12.20;90.80;;;;;;5016323;28;20044;-59
2022/02/23 12:15:40;;;;;;;119.47;15.15;;;12.20;90.80;;;;;;4999182;28;20459;-59
2022/02/23 12:18:16;;;;;;;109.93;12.75;;;12.20;90.70;;;;;;5019335;28;20361;-59
2022/02/23 12:20:45;;;;;;;116.97;12.95;;;12.20;90.70;;;;;;5014731;28;20069;-60
2022/02/23 12:23:19;;;;;;;126.85;13.27;;;12.30;90.70;;;;;;5014533;28;20064;-61
2022/02/23 12:25:47;;;;;;;120.25;12.40;;;12.30;90.60;;;;;;5016468;28;20516;-61
2022/02/23 12:28:20;;;;;;;105.15;12.63;;;12.30;90.60;;;;;;5013901;28;20041;-59
2022/02/23 12:30:50;;;;;;;109.43;13.45;;;12.30;90.60;;;;;;5015575;28;20037;-59
2022/02/23 12:33:16;;;;;;;75.57;9.07;;;12.30;90.60;;;;;;5011170;28;20033;-61
2022/02/23 12:35:43;;;;;;;64.70;10.23;;;12.40;90.50;;;;;;5019028;28;20038;-59